sensor_id;sensor_type;location;lat;lon;timestamp;P1;durP1;ratioP1;P2;durP2;ratioP2
4074;SDS011;2052;53.522;9.806;2023-04-16T00:00:08;36.67;;;20.93;;
4074;SDS011;2052;53.522;9.806;2023-04-16T00:02:35;42.17;;;22.50;;
4074;SDS011;2052;53.522;9.806;2023-04-16T00:05:02;40.73;;;23.50;;
4074;SDS011;2052;53.522;9.806;2023-04-16T00:07:29;38.43;;;21.17;;
4074;SDS011;2052;53.522;9.806;2023-04-16T00:09:55;45.20;;;23.40;;
4074;SDS011;2052;53.522;9.806;2023-04-16T00:12:22;38.40;;;22.33;;
4074;SDS011;2052;53.522;9.806;2023-04-16T00:14:49;33.07;;;20.40;;
4074;SDS011;2052;53.522;9.806;2023-04-16T00:17:16;39.20;;;21.20;;
4074;SDS011;2052;53.522;9.806;2023-04-16T00:19:43;38.83;;;21.87;;
4074;SDS011;2052;53.522;9.806;2023-04-16T00:22:09;38.40;;;23.30;;
4074;SDS011;2052;53.522;9.806;2023-04-16T00:24:36;38.40;;;20.67;;
4074;SDS011;2052;53.522;9.806;2023-04-16T00:27:03;41.63;;;21.27;;
4074;SDS011;2052;53.522;9.806;2023-04-16T00:29:29;44.63;;;22.80;;
4074;SDS011;2052;53.522;9.806;2023-04-16T00:31:56;36.37;;;23.33;;
4074;SDS011;2052;53.522;9.806;2023-04-16T00:34:24;44.13;;;22.33;;
4074;SDS011;2052;53.522;9.806;2023-04-16T00:36:50;35.23;;;20.53;;
4074;SDS011;2052;53.522;9.806;2023-04-16T00:39:17;40.40;;;20.90;;
4074;SDS011;2052;53.522;9.806;2023-04-16T00:41:44;43.27;;;22.50;;
4074;SDS011;2052;53.522;9.806;2023-04-16T00:44:11;37.53;;;21.20;;
4074;SDS011;2052;53.522;9.806;2023-04-16T00:46:37;37.43;;;21.87;;
4074;SDS011;2052;53.522;9.806;2023-04-16T00:49:05;44.00;;;21.97;;
4074;SDS011;2052;53.522;9.806;2023-04-16T00:51:35;39.00;;;21.60;;
4074;SDS011;2052;53.522;9.806;2023-04-16T00:54:02;42.33;;;23.63;;
4074;SDS011;2052;53.522;9.806;2023-04-16T00:56:28;34.33;;;21.47;;
4074;SDS011;2052;53.522;9.806;2023-04-16T00:58:55;36.60;;;21.33;;
4074;SDS011;2052;53.522;9.806;2023-04-16T01:01:22;40.07;;;22.70;;
4074;SDS011;2052;53.522;9.806;2023-04-16T01:03:48;38.20;;;21.40;;
4074;SDS011;2052;53.522;9.806;2023-04-16T01:06:16;39.10;;;20.67;;
4074;SDS011;2052;53.522;9.806;2023-04-16T01:08:45;37.53;;;21.37;;
4074;SDS011;2052;53.522;9.806;2023-04-16T01:11:12;43.40;;;21.00;;
4074;SDS011;2052;53.522;9.806;2023-04-16T01:13:39;39.10;;;21.70;;
4074;SDS011;2052;53.522;9.806;2023-04-16T01:16:06;42.67;;;21.17;;
4074;SDS011;2052;53.522;9.806;2023-04-16T01:18:34;38.60;;;21.03;;
4074;SDS011;2052;53.522;9.806;2023-04-16T01:21:03;34.00;;;20.60;;
4074;SDS011;2052;53.522;9.806;2023-04-16T01:23:30;32.90;;;19.13;;
4074;SDS011;2052;53.522;9.806;2023-04-16T01:25:57;42.77;;;21.47;;
4074;SDS011;2052;53.522;9.806;2023-04-16T01:28:24;34.53;;;21.20;;
4074;SDS011;2052;53.522;9.806;2023-04-16T01:30:50;35.83;;;19.67;;
4074;SDS011;2052;53.522;9.806;2023-04-16T01:33:17;35.20;;;19.30;;
4074;SDS011;2052;53.522;9.806;2023-04-16T01:35:44;40.93;;;19.17;;
4074;SDS011;2052;53.522;9.806;2023-04-16T01:38:12;31.23;;;17.53;;
4074;SDS011;2052;53.522;9.806;2023-04-16T01:40:39;37.53;;;20.63;;
4074;SDS011;2052;53.522;9.806;2023-04-16T01:43:05;34.40;;;19.97;;
4074;SDS011;2052;53.522;9.806;2023-04-16T01:45:32;37.57;;;19.83;;
4074;SDS011;2052;53.522;9.806;2023-04-16T01:47:59;30.93;;;18.90;;
4074;SDS011;2052;53.522;9.806;2023-04-16T01:50:26;36.07;;;20.40;;
4074;SDS011;2052;53.522;9.806;2023-04-16T01:52:52;30.27;;;18.37;;
4074;SDS011;2052;53.522;9.806;2023-04-16T01:55:20;33.97;;;20.30;;
4074;SDS011;2052;53.522;9.806;2023-04-16T01:57:47;30.43;;;19.20;;
4074;SDS011;2052;53.522;9.806;2023-04-16T02:00:13;35.10;;;19.13;;
4074;SDS011;2052;53.522;9.806;2023-04-16T02:02:40;34.10;;;19.60;;
4074;SDS011;2052;53.522;9.806;2023-04-16T02:05:07;32.33;;;18.77;;
4074;SDS011;2052;53.522;9.806;2023-04-16T02:07:33;34.47;;;19.40;;
4074;SDS011;2052;53.522;9.806;2023-04-16T02:10:00;31.53;;;18.03;;
4074;SDS011;2052;53.522;9.806;2023-04-16T02:12:30;35.13;;;19.23;;
4074;SDS011;2052;53.522;9.806;2023-04-16T02:14:56;34.83;;;19.03;;
4074;SDS011;2052;53.522;9.806;2023-04-16T02:17:23;33.30;;;18.90;;
4074;SDS011;2052;53.522;9.806;2023-04-16T02:19:49;32.70;;;17.87;;
4074;SDS011;2052;53.522;9.806;2023-04-16T02:22:16;34.57;;;19.93;;
4074;SDS011;2052;53.522;9.806;2023-04-16T02:24:42;28.10;;;18.53;;
4074;SDS011;2052;53.522;9.806;2023-04-16T02:27:09;32.20;;;19.00;;
4074;SDS011;2052;53.522;9.806;2023-04-16T02:29:37;33.43;;;18.67;;
4074;SDS011;2052;53.522;9.806;2023-04-16T02:32:03;30.93;;;17.80;;
4074;SDS011;2052;53.522;9.806;2023-04-16T02:34:30;35.83;;;20.30;;
4074;SDS011;2052;53.522;9.806;2023-04-16T02:36:58;35.03;;;20.50;;
4074;SDS011;2052;53.522;9.806;2023-04-16T02:39:25;31.63;;;19.80;;
4074;SDS011;2052;53.522;9.806;2023-04-16T02:41:51;34.63;;;19.70;;
4074;SDS011;2052;53.522;9.806;2023-04-16T02:44:18;40.03;;;21.20;;
4074;SDS011;2052;53.522;9.806;2023-04-16T02:46:46;34.83;;;21.30;;
4074;SDS011;2052;53.522;9.806;2023-04-16T02:49:12;34.67;;;19.70;;
4074;SDS011;2052;53.522;9.806;2023-04-16T02:51:39;35.00;;;19.90;;
4074;SDS011;2052;53.522;9.806;2023-04-16T02:54:06;36.80;;;21.70;;
4074;SDS011;2052;53.522;9.806;2023-04-16T02:56:32;34.77;;;19.97;;
4074;SDS011;2052;53.522;9.806;2023-04-16T02:58:59;39.67;;;21.33;;
4074;SDS011;2052;53.522;9.806;2023-04-16T03:01:26;41.00;;;21.43;;
4074;SDS011;2052;53.522;9.806;2023-04-16T03:03:54;42.40;;;21.77;;
4074;SDS011;2052;53.522;9.806;2023-04-16T03:06:21;36.97;;;22.43;;
4074;SDS011;2052;53.522;9.806;2023-04-16T03:08:47;39.30;;;22.20;;
4074;SDS011;2052;53.522;9.806;2023-04-16T03:11:14;40.00;;;23.60;;
4074;SDS011;2052;53.522;9.806;2023-04-16T03:13:40;42.73;;;22.87;;
4074;SDS011;2052;53.522;9.806;2023-04-16T03:16:07;44.10;;;23.80;;
4074;SDS011;2052;53.522;9.806;2023-04-16T03:18:33;37.03;;;22.47;;
4074;SDS011;2052;53.522;9.806;2023-04-16T03:21:01;43.20;;;24.90;;
4074;SDS011;2052;53.522;9.806;2023-04-16T03:23:28;44.27;;;23.87;;
4074;SDS011;2052;53.522;9.806;2023-04-16T03:25:55;39.07;;;22.27;;
4074;SDS011;2052;53.522;9.806;2023-04-16T03:28:21;40.47;;;22.07;;
4074;SDS011;2052;53.522;9.806;2023-04-16T03:30:51;44.37;;;23.30;;
4074;SDS011;2052;53.522;9.806;2023-04-16T03:33:18;35.73;;;21.57;;
4074;SDS011;2052;53.522;9.806;2023-04-16T03:35:45;45.77;;;23.60;;
4074;SDS011;2052;53.522;9.806;2023-04-16T03:38:12;45.30;;;22.27;;
4074;SDS011;2052;53.522;9.806;2023-04-16T03:40:39;37.13;;;22.67;;
4074;SDS011;2052;53.522;9.806;2023-04-16T03:43:06;42.17;;;22.50;;
4074;SDS011;2052;53.522;9.806;2023-04-16T03:45:32;43.13;;;23.80;;
4074;SDS011;2052;53.522;9.806;2023-04-16T03:47:59;46.83;;;26.00;;
4074;SDS011;2052;53.522;9.806;2023-04-16T03:50:26;39.00;;;24.97;;
4074;SDS011;2052;53.522;9.806;2023-04-16T03:52:53;38.07;;;22.10;;
4074;SDS011;2052;53.522;9.806;2023-04-16T03:55:21;37.97;;;22.63;;
4074;SDS011;2052;53.522;9.806;2023-04-16T03:57:47;36.63;;;21.67;;
4074;SDS011;2052;53.522;9.806;2023-04-16T04:00:14;40.53;;;22.97;;
4074;SDS011;2052;53.522;9.806;2023-04-16T04:02:40;39.60;;;21.77;;
4074;SDS011;2052;53.522;9.806;2023-04-16T04:05:07;41.77;;;23.57;;
4074;SDS011;2052;53.522;9.806;2023-04-16T04:07:34;34.07;;;21.87;;
4074;SDS011;2052;53.522;9.806;2023-04-16T04:10:01;37.07;;;20.43;;
4074;SDS011;2052;53.522;9.806;2023-04-16T04:12:30;36.73;;;21.47;;
4074;SDS011;2052;53.522;9.806;2023-04-16T04:14:57;32.70;;;19.83;;
4074;SDS011;2052;53.522;9.806;2023-04-16T04:17:23;47.20;;;22.23;;
4074;SDS011;2052;53.522;9.806;2023-04-16T04:19:50;35.50;;;20.90;;
4074;SDS011;2052;53.522;9.806;2023-04-16T04:22:17;35.03;;;21.23;;
4074;SDS011;2052;53.522;9.806;2023-04-16T04:24:44;36.27;;;21.23;;
4074;SDS011;2052;53.522;9.806;2023-04-16T04:27:11;37.03;;;22.47;;
4074;SDS011;2052;53.522;9.806;2023-04-16T04:29:38;34.37;;;20.23;;
4074;SDS011;2052;53.522;9.806;2023-04-16T04:32:05;36.30;;;19.90;;
4074;SDS011;2052;53.522;9.806;2023-04-16T04:34:32;35.27;;;21.43;;
4074;SDS011;2052;53.522;9.806;2023-04-16T04:36:58;42.20;;;23.20;;
4074;SDS011;2052;53.522;9.806;2023-04-16T04:39:25;40.07;;;21.07;;
4074;SDS011;2052;53.522;9.806;2023-04-16T04:41:52;45.00;;;21.90;;
4074;SDS011;2052;53.522;9.806;2023-04-16T04:44:18;41.07;;;20.40;;
4074;SDS011;2052;53.522;9.806;2023-04-16T04:46:46;36.70;;;20.30;;
4074;SDS011;2052;53.522;9.806;2023-04-16T04:49:13;39.83;;;21.30;;
4074;SDS011;2052;53.522;9.806;2023-04-16T04:51:39;33.10;;;21.17;;
4074;SDS011;2052;53.522;9.806;2023-04-16T04:54:06;36.10;;;20.07;;
4074;SDS011;2052;53.522;9.806;2023-04-16T04:56:32;39.33;;;21.50;;
4074;SDS011;2052;53.522;9.806;2023-04-16T04:58:59;31.70;;;20.60;;
4074;SDS011;2052;53.522;9.806;2023-04-16T05:01:26;30.10;;;19.70;;
4074;SDS011;2052;53.522;9.806;2023-04-16T05:03:54;36.83;;;21.17;;
4074;SDS011;2052;53.522;9.806;2023-04-16T05:06:20;34.67;;;20.60;;
4074;SDS011;2052;53.522;9.806;2023-04-16T05:08:47;36.53;;;21.00;;
4074;SDS011;2052;53.522;9.806;2023-04-16T05:11:13;31.50;;;20.37;;
4074;SDS011;2052;53.522;9.806;2023-04-16T05:13:40;34.37;;;20.40;;
4074;SDS011;2052;53.522;9.806;2023-04-16T05:16:06;40.00;;;20.70;;
4074;SDS011;2052;53.522;9.806;2023-04-16T05:18:33;35.33;;;21.20;;
4074;SDS011;2052;53.522;9.806;2023-04-16T05:21:01;33.50;;;20.73;;
4074;SDS011;2052;53.522;9.806;2023-04-16T05:23:27;32.07;;;20.97;;
4074;SDS011;2052;53.522;9.806;2023-04-16T05:25:54;37.93;;;22.00;;
4074;SDS011;2052;53.522;9.806;2023-04-16T05:28:21;37.57;;;20.43;;
4074;SDS011;2052;53.522;9.806;2023-04-16T05:30:47;36.50;;;21.40;;
4074;SDS011;2052;53.522;9.806;2023-04-16T05:33:14;39.80;;;21.40;;
4074;SDS011;2052;53.522;9.806;2023-04-16T05:35:41;34.70;;;22.53;;
4074;SDS011;2052;53.522;9.806;2023-04-16T05:38:08;33.90;;;21.60;;
4074;SDS011;2052;53.522;9.806;2023-04-16T05:40:35;36.13;;;20.90;;
4074;SDS011;2052;53.522;9.806;2023-04-16T05:43:02;38.43;;;21.70;;
4074;SDS011;2052;53.522;9.806;2023-04-16T05:45:28;37.07;;;20.77;;
4074;SDS011;2052;53.522;9.806;2023-04-16T05:47:57;34.23;;;21.13;;
4074;SDS011;2052;53.522;9.806;2023-04-16T05:50:23;39.90;;;21.97;;
4074;SDS011;2052;53.522;9.806;2023-04-16T05:52:50;38.23;;;22.07;;
4074;SDS011;2052;53.522;9.806;2023-04-16T05:55:18;35.60;;;20.87;;
4074;SDS011;2052;53.522;9.806;2023-04-16T05:57:45;36.13;;;22.30;;
4074;SDS011;2052;53.522;9.806;2023-04-16T06:00:11;40.03;;;22.07;;
4074;SDS011;2052;53.522;9.806;2023-04-16T06:02:38;39.03;;;23.20;;
4074;SDS011;2052;53.522;9.806;2023-04-16T06:05:05;40.60;;;21.63;;
4074;SDS011;2052;53.522;9.806;2023-04-16T06:07:32;38.03;;;22.00;;
4074;SDS011;2052;53.522;9.806;2023-04-16T06:09:58;37.47;;;22.37;;
4074;SDS011;2052;53.522;9.806;2023-04-16T06:12:26;37.90;;;22.90;;
4074;SDS011;2052;53.522;9.806;2023-04-16T06:14:53;37.40;;;21.60;;
4074;SDS011;2052;53.522;9.806;2023-04-16T06:17:20;35.57;;;21.70;;
4074;SDS011;2052;53.522;9.806;2023-04-16T06:19:46;38.90;;;22.67;;
4074;SDS011;2052;53.522;9.806;2023-04-16T06:22:13;37.67;;;20.20;;
4074;SDS011;2052;53.522;9.806;2023-04-16T06:24:40;30.90;;;19.50;;
4074;SDS011;2052;53.522;9.806;2023-04-16T06:27:07;33.23;;;19.90;;
4074;SDS011;2052;53.522;9.806;2023-04-16T06:29:35;36.13;;;20.53;;
4074;SDS011;2052;53.522;9.806;2023-04-16T06:32:04;46.93;;;21.00;;
4074;SDS011;2052;53.522;9.806;2023-04-16T06:34:31;33.80;;;20.70;;
4074;SDS011;2052;53.522;9.806;2023-04-16T06:36:57;33.90;;;20.17;;
4074;SDS011;2052;53.522;9.806;2023-04-16T06:39:24;35.20;;;19.60;;
4074;SDS011;2052;53.522;9.806;2023-04-16T06:41:50;33.70;;;21.40;;
4074;SDS011;2052;53.522;9.806;2023-04-16T06:44:17;31.90;;;19.50;;
4074;SDS011;2052;53.522;9.806;2023-04-16T06:46:45;32.87;;;20.27;;
4074;SDS011;2052;53.522;9.806;2023-04-16T06:49:11;37.53;;;22.07;;
4074;SDS011;2052;53.522;9.806;2023-04-16T06:51:38;37.10;;;20.43;;
4074;SDS011;2052;53.522;9.806;2023-04-16T06:54:05;32.93;;;19.53;;
4074;SDS011;2052;53.522;9.806;2023-04-16T06:56:31;30.27;;;19.50;;
4074;SDS011;2052;53.522;9.806;2023-04-16T06:58:58;37.00;;;20.50;;
4074;SDS011;2052;53.522;9.806;2023-04-16T07:01:25;36.60;;;22.00;;
4074;SDS011;2052;53.522;9.806;2023-04-16T07:03:53;34.10;;;20.40;;
4074;SDS011;2052;53.522;9.806;2023-04-16T07:06:19;39.63;;;22.73;;
4074;SDS011;2052;53.522;9.806;2023-04-16T07:08:46;34.20;;;18.53;;
4074;SDS011;2052;53.522;9.806;2023-04-16T07:11:12;36.70;;;19.40;;
4074;SDS011;2052;53.522;9.806;2023-04-16T07:13:39;30.43;;;19.17;;
4074;SDS011;2052;53.522;9.806;2023-04-16T07:16:06;36.77;;;19.77;;
4074;SDS011;2052;53.522;9.806;2023-04-16T07:18:33;31.40;;;19.23;;
4074;SDS011;2052;53.522;9.806;2023-04-16T07:21:01;35.07;;;20.63;;
4074;SDS011;2052;53.522;9.806;2023-04-16T07:23:28;31.47;;;20.17;;
4074;SDS011;2052;53.522;9.806;2023-04-16T07:25:55;30.97;;;19.30;;
4074;SDS011;2052;53.522;9.806;2023-04-16T07:28:22;39.97;;;19.20;;
4074;SDS011;2052;53.522;9.806;2023-04-16T07:30:49;36.90;;;21.03;;
4074;SDS011;2052;53.522;9.806;2023-04-16T07:33:17;30.10;;;20.20;;
4074;SDS011;2052;53.522;9.806;2023-04-16T07:35:44;35.30;;;19.53;;
4074;SDS011;2052;53.522;9.806;2023-04-16T07:38:12;31.10;;;20.03;;
4074;SDS011;2052;53.522;9.806;2023-04-16T07:40:40;42.77;;;19.83;;
4074;SDS011;2052;53.522;9.806;2023-04-16T07:43:06;32.30;;;18.47;;
4074;SDS011;2052;53.522;9.806;2023-04-16T07:45:33;37.47;;;19.60;;
4074;SDS011;2052;53.522;9.806;2023-04-16T07:48:00;35.27;;;18.23;;
4074;SDS011;2052;53.522;9.806;2023-04-16T07:50:27;35.13;;;18.97;;
4074;SDS011;2052;53.522;9.806;2023-04-16T07:52:53;30.20;;;18.27;;
4074;SDS011;2052;53.522;9.806;2023-04-16T07:55:27;34.40;;;18.00;;
4074;SDS011;2052;53.522;9.806;2023-04-16T07:57:53;32.50;;;17.87;;
4074;SDS011;2052;53.522;9.806;2023-04-16T08:00:20;29.23;;;18.33;;
4074;SDS011;2052;53.522;9.806;2023-04-16T08:02:47;31.73;;;19.00;;
4074;SDS011;2052;53.522;9.806;2023-04-16T08:05:14;32.90;;;18.50;;
4074;SDS011;2052;53.522;9.806;2023-04-16T08:07:41;27.77;;;17.63;;
4074;SDS011;2052;53.522;9.806;2023-04-16T08:10:08;31.20;;;17.73;;
4074;SDS011;2052;53.522;9.806;2023-04-16T08:12:38;29.53;;;17.53;;
4074;SDS011;2052;53.522;9.806;2023-04-16T08:15:06;32.23;;;19.27;;
4074;SDS011;2052;53.522;9.806;2023-04-16T08:17:33;26.10;;;17.30;;
4074;SDS011;2052;53.522;9.806;2023-04-16T08:20:00;29.03;;;17.67;;
4074;SDS011;2052;53.522;9.806;2023-04-16T08:22:27;30.73;;;18.40;;
4074;SDS011;2052;53.522;9.806;2023-04-16T08:24:54;29.20;;;18.10;;
4074;SDS011;2052;53.522;9.806;2023-04-16T08:27:20;29.10;;;17.77;;
4074;SDS011;2052;53.522;9.806;2023-04-16T08:29:48;25.40;;;16.43;;
4074;SDS011;2052;53.522;9.806;2023-04-16T08:32:15;29.90;;;18.20;;
4074;SDS011;2052;53.522;9.806;2023-04-16T08:34:42;28.07;;;16.53;;
4074;SDS011;2052;53.522;9.806;2023-04-16T08:37:08;24.40;;;15.57;;
4074;SDS011;2052;53.522;9.806;2023-04-16T08:39:35;31.07;;;16.53;;
4074;SDS011;2052;53.522;9.806;2023-04-16T08:42:03;30.90;;;18.33;;
4074;SDS011;2052;53.522;9.806;2023-04-16T08:44:31;25.50;;;16.30;;
4074;SDS011;2052;53.522;9.806;2023-04-16T08:47:01;23.87;;;16.10;;
4074;SDS011;2052;53.522;9.806;2023-04-16T08:49:28;27.43;;;18.13;;
4074;SDS011;2052;53.522;9.806;2023-04-16T08:51:55;29.30;;;17.37;;
4074;SDS011;2052;53.522;9.806;2023-04-16T08:57:09;23.07;;;15.70;;
4074;SDS011;2052;53.522;9.806;2023-04-16T08:59:37;27.20;;;15.70;;
4074;SDS011;2052;53.522;9.806;2023-04-16T09:02:05;23.60;;;16.20;;
4074;SDS011;2052;53.522;9.806;2023-04-16T09:04:32;32.13;;;17.47;;
4074;SDS011;2052;53.522;9.806;2023-04-16T09:07:01;24.90;;;16.40;;
4074;SDS011;2052;53.522;9.806;2023-04-16T09:09:30;24.43;;;15.50;;
4074;SDS011;2052;53.522;9.806;2023-04-16T09:11:56;31.60;;;17.20;;
4074;SDS011;2052;53.522;9.806;2023-04-16T09:14:23;25.00;;;16.60;;
4074;SDS011;2052;53.522;9.806;2023-04-16T09:16:50;27.67;;;16.10;;
4074;SDS011;2052;53.522;9.806;2023-04-16T09:19:20;27.50;;;15.40;;
4074;SDS011;2052;53.522;9.806;2023-04-16T09:21:46;28.10;;;17.80;;
4074;SDS011;2052;53.522;9.806;2023-04-16T09:24:13;26.43;;;16.97;;
4074;SDS011;2052;53.522;9.806;2023-04-16T09:26:40;27.57;;;15.93;;
4074;SDS011;2052;53.522;9.806;2023-04-16T09:29:07;26.63;;;16.10;;
4074;SDS011;2052;53.522;9.806;2023-04-16T09:31:33;25.60;;;14.70;;
4074;SDS011;2052;53.522;9.806;2023-04-16T09:34:00;24.37;;;16.87;;
4074;SDS011;2052;53.522;9.806;2023-04-16T09:36:32;26.47;;;17.33;;
4074;SDS011;2052;53.522;9.806;2023-04-16T09:39:00;24.07;;;13.67;;
4074;SDS011;2052;53.522;9.806;2023-04-16T09:41:28;22.50;;;14.20;;
4074;SDS011;2052;53.522;9.806;2023-04-16T09:43:55;24.30;;;15.10;;
4074;SDS011;2052;53.522;9.806;2023-04-16T09:46:23;22.63;;;15.07;;
4074;SDS011;2052;53.522;9.806;2023-04-16T09:48:50;26.57;;;15.70;;
4074;SDS011;2052;53.522;9.806;2023-04-16T09:51:19;24.10;;;15.63;;
4074;SDS011;2052;53.522;9.806;2023-04-16T09:53:47;21.60;;;14.47;;
4074;SDS011;2052;53.522;9.806;2023-04-16T09:56:17;25.70;;;16.67;;
4074;SDS011;2052;53.522;9.806;2023-04-16T09:58:45;22.67;;;16.00;;
4074;SDS011;2052;53.522;9.806;2023-04-16T10:01:12;26.43;;;16.33;;
4074;SDS011;2052;53.522;9.806;2023-04-16T10:03:40;24.90;;;15.43;;
4074;SDS011;2052;53.522;9.806;2023-04-16T10:06:07;24.20;;;14.87;;
4074;SDS011;2052;53.522;9.806;2023-04-16T10:08:41;25.97;;;16.20;;
4074;SDS011;2052;53.522;9.806;2023-04-16T10:11:09;24.40;;;15.70;;
4074;SDS011;2052;53.522;9.806;2023-04-16T10:13:36;24.17;;;15.63;;
4074;SDS011;2052;53.522;9.806;2023-04-16T10:16:03;22.90;;;16.30;;
4074;SDS011;2052;53.522;9.806;2023-04-16T10:18:30;23.80;;;16.30;;
4074;SDS011;2052;53.522;9.806;2023-04-16T10:20:56;25.90;;;15.20;;
4074;SDS011;2052;53.522;9.806;2023-04-16T10:23:24;26.43;;;16.97;;
4074;SDS011;2052;53.522;9.806;2023-04-16T10:25:51;28.70;;;16.37;;
4074;SDS011;2052;53.522;9.806;2023-04-16T10:28:20;27.43;;;16.20;;
4074;SDS011;2052;53.522;9.806;2023-04-16T10:30:47;30.20;;;16.40;;
4074;SDS011;2052;53.522;9.806;2023-04-16T10:33:18;28.93;;;15.40;;
4074;SDS011;2052;53.522;9.806;2023-04-16T10:35:46;25.27;;;15.90;;
4074;SDS011;2052;53.522;9.806;2023-04-16T10:38:19;27.37;;;16.50;;
4074;SDS011;2052;53.522;9.806;2023-04-16T10:40:46;24.77;;;16.27;;
4074;SDS011;2052;53.522;9.806;2023-04-16T10:43:16;23.70;;;15.77;;
4074;SDS011;2052;53.522;9.806;2023-04-16T10:45:44;27.93;;;16.43;;
4074;SDS011;2052;53.522;9.806;2023-04-16T10:48:13;25.57;;;16.60;;
4074;SDS011;2052;53.522;9.806;2023-04-16T10:50:41;23.00;;;15.60;;
4074;SDS011;2052;53.522;9.806;2023-04-16T10:53:17;25.20;;;16.47;;
4074;SDS011;2052;53.522;9.806;2023-04-16T10:55:55;28.00;;;16.10;;
4074;SDS011;2052;53.522;9.806;2023-04-16T10:58:25;27.17;;;16.20;;
4074;SDS011;2052;53.522;9.806;2023-04-16T11:00:53;25.03;;;14.80;;
4074;SDS011;2052;53.522;9.806;2023-04-16T11:03:20;25.27;;;14.83;;
4074;SDS011;2052;53.522;9.806;2023-04-16T11:05:47;26.67;;;15.43;;
4074;SDS011;2052;53.522;9.806;2023-04-16T11:08:13;23.50;;;15.60;;
4074;SDS011;2052;53.522;9.806;2023-04-16T11:10:41;24.27;;;15.97;;
4074;SDS011;2052;53.522;9.806;2023-04-16T11:13:07;21.50;;;15.03;;
4074;SDS011;2052;53.522;9.806;2023-04-16T11:15:34;27.70;;;15.50;;
4074;SDS011;2052;53.522;9.806;2023-04-16T11:18:02;23.87;;;15.50;;
4074;SDS011;2052;53.522;9.806;2023-04-16T11:20:30;23.90;;;15.20;;
4074;SDS011;2052;53.522;9.806;2023-04-16T11:22:57;23.63;;;14.30;;
4074;SDS011;2052;53.522;9.806;2023-04-16T11:25:25;24.23;;;16.83;;
4074;SDS011;2052;53.522;9.806;2023-04-16T11:27:53;21.00;;;14.43;;
4074;SDS011;2052;53.522;9.806;2023-04-16T11:30:26;28.67;;;15.93;;
4074;SDS011;2052;53.522;9.806;2023-04-16T11:32:53;24.70;;;15.57;;
4074;SDS011;2052;53.522;9.806;2023-04-16T11:35:21;25.47;;;15.57;;
4074;SDS011;2052;53.522;9.806;2023-04-16T11:37:48;23.33;;;16.10;;
4074;SDS011;2052;53.522;9.806;2023-04-16T11:40:15;24.37;;;15.67;;
4074;SDS011;2052;53.522;9.806;2023-04-16T11:42:42;29.90;;;16.50;;
4074;SDS011;2052;53.522;9.806;2023-04-16T11:45:10;24.43;;;15.63;;
4074;SDS011;2052;53.522;9.806;2023-04-16T11:47:44;19.97;;;14.40;;
4074;SDS011;2052;53.522;9.806;2023-04-16T11:50:17;24.43;;;16.20;;
4074;SDS011;2052;53.522;9.806;2023-04-16T11:52:47;22.83;;;15.10;;
4074;SDS011;2052;53.522;9.806;2023-04-16T11:55:14;25.90;;;16.40;;
4074;SDS011;2052;53.522;9.806;2023-04-16T11:57:40;27.53;;;16.47;;
4074;SDS011;2052;53.522;9.806;2023-04-16T12:00:08;24.23;;;16.17;;
4074;SDS011;2052;53.522;9.806;2023-04-16T12:02:37;24.30;;;16.17;;
4074;SDS011;2052;53.522;9.806;2023-04-16T12:05:05;26.30;;;16.97;;
4074;SDS011;2052;53.522;9.806;2023-04-16T12:07:42;23.63;;;15.47;;
4074;SDS011;2052;53.522;9.806;2023-04-16T12:10:11;25.47;;;17.63;;
4074;SDS011;2052;53.522;9.806;2023-04-16T12:12:37;23.73;;;15.70;;
4074;SDS011;2052;53.522;9.806;2023-04-16T12:15:04;26.33;;;16.27;;
4074;SDS011;2052;53.522;9.806;2023-04-16T12:17:32;25.53;;;16.67;;
4074;SDS011;2052;53.522;9.806;2023-04-16T12:20:00;28.90;;;16.60;;
4074;SDS011;2052;53.522;9.806;2023-04-16T12:22:30;26.37;;;16.50;;
4074;SDS011;2052;53.522;9.806;2023-04-16T12:24:59;37.17;;;16.23;;
4074;SDS011;2052;53.522;9.806;2023-04-16T12:27:40;24.90;;;15.50;;
4074;SDS011;2052;53.522;9.806;2023-04-16T12:30:09;26.20;;;16.73;;
4074;SDS011;2052;53.522;9.806;2023-04-16T12:32:36;23.17;;;15.93;;
4074;SDS011;2052;53.522;9.806;2023-04-16T12:35:04;27.77;;;15.43;;
4074;SDS011;2052;53.522;9.806;2023-04-16T12:37:30;27.43;;;16.70;;
4074;SDS011;2052;53.522;9.806;2023-04-16T12:39:57;22.67;;;15.90;;
4074;SDS011;2052;53.522;9.806;2023-04-16T12:42:24;24.13;;;16.07;;
4074;SDS011;2052;53.522;9.806;2023-04-16T12:44:52;31.27;;;17.50;;
4074;SDS011;2052;53.522;9.806;2023-04-16T12:47:18;27.70;;;18.47;;
4074;SDS011;2052;53.522;9.806;2023-04-16T12:49:45;31.53;;;18.27;;
4074;SDS011;2052;53.522;9.806;2023-04-16T12:52:11;30.30;;;18.10;;
4074;SDS011;2052;53.522;9.806;2023-04-16T12:54:38;28.13;;;17.80;;
4074;SDS011;2052;53.522;9.806;2023-04-16T12:57:05;28.20;;;17.40;;
4074;SDS011;2052;53.522;9.806;2023-04-16T12:59:31;27.40;;;17.13;;
4074;SDS011;2052;53.522;9.806;2023-04-16T13:02:00;26.80;;;17.10;;
4074;SDS011;2052;53.522;9.806;2023-04-16T13:04:27;26.90;;;16.87;;
4074;SDS011;2052;53.522;9.806;2023-04-16T13:06:54;29.47;;;15.53;;
4074;SDS011;2052;53.522;9.806;2023-04-16T13:09:20;28.23;;;16.60;;
4074;SDS011;2052;53.522;9.806;2023-04-16T13:11:47;25.73;;;16.70;;
4074;SDS011;2052;53.522;9.806;2023-04-16T13:14:13;27.90;;;16.57;;
4074;SDS011;2052;53.522;9.806;2023-04-16T13:16:40;25.20;;;17.77;;
4074;SDS011;2052;53.522;9.806;2023-04-16T13:19:08;24.30;;;15.83;;
4074;SDS011;2052;53.522;9.806;2023-04-16T13:21:35;26.50;;;16.37;;
4074;SDS011;2052;53.522;9.806;2023-04-16T13:24:02;23.60;;;16.40;;
4074;SDS011;2052;53.522;9.806;2023-04-16T13:26:28;29.20;;;17.03;;
4074;SDS011;2052;53.522;9.806;2023-04-16T13:28:55;26.73;;;17.93;;
4074;SDS011;2052;53.522;9.806;2023-04-16T13:31:22;28.10;;;16.23;;
4074;SDS011;2052;53.522;9.806;2023-04-16T13:33:49;29.10;;;16.37;;
4074;SDS011;2052;53.522;9.806;2023-04-16T13:36:16;27.10;;;16.70;;
4074;SDS011;2052;53.522;9.806;2023-04-16T13:38:43;28.07;;;16.70;;
4074;SDS011;2052;53.522;9.806;2023-04-16T13:41:09;28.50;;;18.00;;
4074;SDS011;2052;53.522;9.806;2023-04-16T13:43:36;20.77;;;15.67;;
4074;SDS011;2052;53.522;9.806;2023-04-16T13:46:03;24.70;;;15.30;;
4074;SDS011;2052;53.522;9.806;2023-04-16T13:48:29;25.83;;;17.07;;
4074;SDS011;2052;53.522;9.806;2023-04-16T13:50:56;23.73;;;16.40;;
4074;SDS011;2052;53.522;9.806;2023-04-16T13:53:24;23.40;;;15.50;;
4074;SDS011;2052;53.522;9.806;2023-04-16T13:55:51;26.27;;;16.07;;
4074;SDS011;2052;53.522;9.806;2023-04-16T13:58:17;30.70;;;17.43;;
4074;SDS011;2052;53.522;9.806;2023-04-16T14:00:44;25.57;;;17.60;;
4074;SDS011;2052;53.522;9.806;2023-04-16T14:03:11;30.13;;;16.93;;
4074;SDS011;2052;53.522;9.806;2023-04-16T14:05:37;32.93;;;17.43;;
4074;SDS011;2052;53.522;9.806;2023-04-16T14:08:05;27.50;;;17.60;;
4074;SDS011;2052;53.522;9.806;2023-04-16T14:10:33;23.73;;;16.20;;
4074;SDS011;2052;53.522;9.806;2023-04-16T14:13:00;25.90;;;16.80;;
4074;SDS011;2052;53.522;9.806;2023-04-16T14:15:26;27.57;;;17.47;;
4074;SDS011;2052;53.522;9.806;2023-04-16T14:17:54;26.00;;;17.07;;
4074;SDS011;2052;53.522;9.806;2023-04-16T14:20:22;31.23;;;17.43;;
4074;SDS011;2052;53.522;9.806;2023-04-16T14:22:49;29.40;;;18.80;;
4074;SDS011;2052;53.522;9.806;2023-04-16T14:25:15;30.23;;;18.63;;
4074;SDS011;2052;53.522;9.806;2023-04-16T14:27:43;25.33;;;16.40;;
4074;SDS011;2052;53.522;9.806;2023-04-16T14:30:10;27.20;;;17.23;;
4074;SDS011;2052;53.522;9.806;2023-04-16T14:32:37;24.77;;;17.80;;
4074;SDS011;2052;53.522;9.806;2023-04-16T14:35:05;24.67;;;16.00;;
4074;SDS011;2052;53.522;9.806;2023-04-16T14:37:32;24.77;;;17.10;;
4074;SDS011;2052;53.522;9.806;2023-04-16T14:39:59;25.57;;;16.73;;
4074;SDS011;2052;53.522;9.806;2023-04-16T14:42:28;27.30;;;17.60;;
4074;SDS011;2052;53.522;9.806;2023-04-16T14:44:56;24.20;;;17.73;;
4074;SDS011;2052;53.522;9.806;2023-04-16T14:47:22;28.93;;;17.80;;
4074;SDS011;2052;53.522;9.806;2023-04-16T14:49:49;24.17;;;17.47;;